Crowder, Oklahoma
Current Conditions -  °F | °C
As of 3:53 PM on Monday 20 Oct 2014 (Local Time) from KMLC Reporting Station
Broken Clouds Broken Clouds  
Wind Chill: 80°   Ceiling: 4200
Heat Index: 81°   Visibility: 9mi
Dew Point: 60°   Wind: 6mph
Humidity: 50%   Direction: 250°WSW
Pressure: 30.01"   Gusts: NA
Location:  35.12°N, 95.67°W
Report Text: KMLC 202053Z AUTO 25005KT 9SM BKN042 27/16 A3001 RMK AO2 SLP156 T02670156 56019
Loading
Personal Weather Stations






























Interactive Weather Map
Tropical Storm Tracking
New forecast layout! Learn more

10-Day Weather Forecast

Advertisements
Track Severe Weather on mobile